sensor_id;sensor_type;location;lat;lon;timestamp;pressure;altitude;pressure_sealevel;temperature;humidity
71165;BME280;58859;55.132;-1.586;2023-05-02T00:01:57;102166.28;;;11.52;100.00
71165;BME280;58859;55.132;-1.586;2023-05-02T00:04:22;102164.41;;;11.54;100.00
71165;BME280;58859;55.132;-1.586;2023-05-02T00:06:50;102166.19;;;11.54;100.00
71165;BME280;58859;55.132;-1.586;2023-05-02T00:09:16;102171.69;;;11.27;100.00
71165;BME280;58859;55.132;-1.586;2023-05-02T00:11:41;102175.03;;;11.29;100.00
71165;BME280;58859;55.132;-1.586;2023-05-02T00:14:06;102173.38;;;11.28;100.00
71165;BME280;58859;55.132;-1.586;2023-05-02T00:16:32;102165.81;;;11.36;100.00
71165;BME280;58859;55.132;-1.586;2023-05-02T00:18:57;102175.75;;;11.42;100.00
71165;BME280;58859;55.132;-1.586;2023-05-02T00:21:23;102177.06;;;11.48;100.00
71165;BME280;58859;55.132;-1.586;2023-05-02T00:23:50;102182.06;;;11.51;100.00
71165;BME280;58859;55.132;-1.586;2023-05-02T00:26:15;102189.63;;;11.43;100.00
71165;BME280;58859;55.132;-1.586;2023-05-02T00:28:41;102175.63;;;11.33;100.00
71165;BME280;58859;55.132;-1.586;2023-05-02T00:31:06;102177.91;;;11.48;100.00
71165;BME280;58859;55.132;-1.586;2023-05-02T00:33:32;102172.03;;;11.12;100.00
71165;BME280;58859;55.132;-1.586;2023-05-02T00:35:57;102172.09;;;11.45;100.00
71165;BME280;58859;55.132;-1.586;2023-05-02T00:38:22;102176.94;;;11.38;100.00
71165;BME280;58859;55.132;-1.586;2023-05-02T00:40:49;102171.00;;;11.36;100.00
71165;BME280;58859;55.132;-1.586;2023-05-02T00:43:17;102177.53;;;11.53;100.00
71165;BME280;58859;55.132;-1.586;2023-05-02T00:45:43;102175.84;;;11.30;100.00
71165;BME280;58859;55.132;-1.586;2023-05-02T00:48:10;102184.72;;;11.27;100.00
71165;BME280;58859;55.132;-1.586;2023-05-02T00:50:38;102189.16;;;11.38;100.00
71165;BME280;58859;55.132;-1.586;2023-05-02T00:53:05;102187.72;;;11.45;100.00
71165;BME280;58859;55.132;-1.586;2023-05-02T00:55:31;102178.72;;;11.38;100.00
71165;BME280;58859;55.132;-1.586;2023-05-02T00:57:59;102192.09;;;11.44;100.00
71165;BME280;58859;55.132;-1.586;2023-05-02T01:00:31;102180.84;;;11.44;100.00
71165;BME280;58859;55.132;-1.586;2023-05-02T01:03:11;102187.22;;;11.29;100.00
71165;BME280;58859;55.132;-1.586;2023-05-02T01:05:58;102186.66;;;11.36;100.00
71165;BME280;58859;55.132;-1.586;2023-05-02T01:11:13;102191.81;;;11.14;100.00
71165;BME280;58859;55.132;-1.586;2023-05-02T01:13:42;102202.66;;;11.43;100.00
71165;BME280;58859;55.132;-1.586;2023-05-02T01:16:11;102198.50;;;11.29;100.00
71165;BME280;58859;55.132;-1.586;2023-05-02T01:18:39;102199.66;;;11.36;100.00
71165;BME280;58859;55.132;-1.586;2023-05-02T01:21:07;102195.28;;;11.37;100.00
71165;BME280;58859;55.132;-1.586;2023-05-02T01:26:26;102197.41;;;11.32;100.00
71165;BME280;58859;55.132;-1.586;2023-05-02T01:29:01;102199.53;;;11.27;100.00
71165;BME280;58859;55.132;-1.586;2023-05-02T01:31:33;102205.28;;;11.08;100.00
71165;BME280;58859;55.132;-1.586;2023-05-02T01:34:00;102213.28;;;11.29;100.00
71165;BME280;58859;55.132;-1.586;2023-05-02T01:36:28;102212.09;;;11.33;100.00
71165;BME280;58859;55.132;-1.586;2023-05-02T01:38:55;102212.28;;;11.19;100.00
71165;BME280;58859;55.132;-1.586;2023-05-02T01:41:24;102216.13;;;11.37;100.00
71165;BME280;58859;55.132;-1.586;2023-05-02T01:43:50;102212.44;;;11.28;100.00
71165;BME280;58859;55.132;-1.586;2023-05-02T01:46:19;102212.34;;;11.41;100.00
71165;BME280;58859;55.132;-1.586;2023-05-02T01:48:46;102210.66;;;11.18;100.00
71165;BME280;58859;55.132;-1.586;2023-05-02T01:51:14;102212.00;;;11.34;100.00
71165;BME280;58859;55.132;-1.586;2023-05-02T01:53:43;102205.66;;;11.15;100.00
71165;BME280;58859;55.132;-1.586;2023-05-02T01:56:09;102211.59;;;11.28;100.00
71165;BME280;58859;55.132;-1.586;2023-05-02T01:58:35;102209.25;;;11.36;100.00
71165;BME280;58859;55.132;-1.586;2023-05-02T02:01:02;102213.50;;;11.26;100.00
71165;BME280;58859;55.132;-1.586;2023-05-02T02:03:29;102212.41;;;11.17;100.00
71165;BME280;58859;55.132;-1.586;2023-05-02T02:05:55;102217.00;;;11.14;100.00
71165;BME280;58859;55.132;-1.586;2023-05-02T02:08:23;102222.44;;;11.11;100.00
71165;BME280;58859;55.132;-1.586;2023-05-02T02:10:53;102218.94;;;11.23;100.00
71165;BME280;58859;55.132;-1.586;2023-05-02T02:13:39;102219.81;;;11.00;100.00
71165;BME280;58859;55.132;-1.586;2023-05-02T02:16:10;102221.88;;;11.18;100.00
71165;BME280;58859;55.132;-1.586;2023-05-02T02:18:37;102231.28;;;10.97;100.00
71165;BME280;58859;55.132;-1.586;2023-05-02T02:21:06;102226.34;;;10.81;100.00
71165;BME280;58859;55.132;-1.586;2023-05-02T02:23:34;102227.66;;;10.87;100.00
71165;BME280;58859;55.132;-1.586;2023-05-02T02:26:01;102231.78;;;10.78;100.00
71165;BME280;58859;55.132;-1.586;2023-05-02T02:28:27;102228.28;;;10.90;100.00
71165;BME280;58859;55.132;-1.586;2023-05-02T02:30:52;102224.56;;;10.82;100.00
71165;BME280;58859;55.132;-1.586;2023-05-02T02:33:18;102230.59;;;11.06;100.00
71165;BME280;58859;55.132;-1.586;2023-05-02T02:35:52;102225.63;;;11.03;100.00
71165;BME280;58859;55.132;-1.586;2023-05-02T02:38:41;102242.78;;;11.06;100.00
71165;BME280;58859;55.132;-1.586;2023-05-02T02:41:21;102233.38;;;10.92;100.00
71165;BME280;58859;55.132;-1.586;2023-05-02T02:46:50;102231.53;;;10.81;100.00
71165;BME280;58859;55.132;-1.586;2023-05-02T02:49:37;102239.66;;;10.89;100.00
71165;BME280;58859;55.132;-1.586;2023-05-02T02:52:23;102241.72;;;10.84;100.00
71165;BME280;58859;55.132;-1.586;2023-05-02T02:54:57;102245.13;;;10.74;100.00
71165;BME280;58859;55.132;-1.586;2023-05-02T02:57:37;102244.56;;;10.81;100.00
71165;BME280;58859;55.132;-1.586;2023-05-02T03:00:11;102235.47;;;10.87;100.00
71165;BME280;58859;55.132;-1.586;2023-05-02T03:02:38;102240.97;;;10.95;100.00
71165;BME280;58859;55.132;-1.586;2023-05-02T03:05:06;102232.66;;;10.90;100.00
71165;BME280;58859;55.132;-1.586;2023-05-02T03:07:33;102227.75;;;10.74;100.00
71165;BME280;58859;55.132;-1.586;2023-05-02T03:10:02;102226.06;;;10.73;100.00
71165;BME280;58859;55.132;-1.586;2023-05-02T03:12:28;102232.50;;;10.80;100.00
71165;BME280;58859;55.132;-1.586;2023-05-02T03:15:15;102235.31;;;10.77;100.00
71165;BME280;58859;55.132;-1.586;2023-05-02T03:17:47;102233.16;;;10.95;100.00
71165;BME280;58859;55.132;-1.586;2023-05-02T03:20:12;102222.59;;;10.85;100.00
71165;BME280;58859;55.132;-1.586;2023-05-02T03:22:38;102240.09;;;10.83;100.00
71165;BME280;58859;55.132;-1.586;2023-05-02T03:25:03;102231.53;;;10.81;100.00
71165;BME280;58859;55.132;-1.586;2023-05-02T03:27:29;102236.84;;;10.92;100.00
71165;BME280;58859;55.132;-1.586;2023-05-02T03:29:56;102229.50;;;10.98;100.00
71165;BME280;58859;55.132;-1.586;2023-05-02T03:32:21;102229.00;;;10.69;100.00
71165;BME280;58859;55.132;-1.586;2023-05-02T03:34:46;102234.16;;;10.81;100.00
71165;BME280;58859;55.132;-1.586;2023-05-02T03:37:12;102234.63;;;10.75;100.00
71165;BME280;58859;55.132;-1.586;2023-05-02T03:39:37;102232.53;;;10.68;100.00
71165;BME280;58859;55.132;-1.586;2023-05-02T03:42:04;102225.56;;;10.68;100.00
71165;BME280;58859;55.132;-1.586;2023-05-02T03:44:29;102234.31;;;10.67;100.00
71165;BME280;58859;55.132;-1.586;2023-05-02T03:46:55;102236.72;;;10.34;100.00
71165;BME280;58859;55.132;-1.586;2023-05-02T03:49:20;102241.38;;;10.42;100.00
71165;BME280;58859;55.132;-1.586;2023-05-02T03:51:46;102250.19;;;10.52;100.00
71165;BME280;58859;55.132;-1.586;2023-05-02T03:54:11;102248.09;;;10.57;100.00
71165;BME280;58859;55.132;-1.586;2023-05-02T03:56:36;102249.63;;;10.35;100.00
71165;BME280;58859;55.132;-1.586;2023-05-02T03:59:03;102254.56;;;10.51;100.00
71165;BME280;58859;55.132;-1.586;2023-05-02T04:01:29;102248.16;;;10.44;100.00
71165;BME280;58859;55.132;-1.586;2023-05-02T04:03:55;102253.78;;;10.38;100.00
71165;BME280;58859;55.132;-1.586;2023-05-02T04:06:21;102249.06;;;10.43;100.00
71165;BME280;58859;55.132;-1.586;2023-05-02T04:08:47;102250.53;;;10.47;100.00
71165;BME280;58859;55.132;-1.586;2023-05-02T04:11:12;102255.75;;;10.71;100.00
71165;BME280;58859;55.132;-1.586;2023-05-02T04:13:38;102251.09;;;10.63;100.00
71165;BME280;58859;55.132;-1.586;2023-05-02T04:16:03;102241.81;;;10.72;100.00
71165;BME280;58859;55.132;-1.586;2023-05-02T04:18:29;102244.06;;;10.76;100.00
71165;BME280;58859;55.132;-1.586;2023-05-02T04:20:55;102250.88;;;10.90;100.00
71165;BME280;58859;55.132;-1.586;2023-05-02T04:23:20;102259.63;;;10.89;100.00
71165;BME280;58859;55.132;-1.586;2023-05-02T04:25:54;102257.53;;;10.94;100.00
71165;BME280;58859;55.132;-1.586;2023-05-02T04:28:21;102255.84;;;10.93;100.00
71165;BME280;58859;55.132;-1.586;2023-05-02T04:30:48;102257.75;;;10.91;100.00
71165;BME280;58859;55.132;-1.586;2023-05-02T04:33:13;102260.16;;;10.81;100.00
71165;BME280;58859;55.132;-1.586;2023-05-02T04:35:40;102261.75;;;10.84;100.00
71165;BME280;58859;55.132;-1.586;2023-05-02T04:38:05;102266.47;;;10.90;100.00
71165;BME280;58859;55.132;-1.586;2023-05-02T04:40:31;102264.34;;;10.84;100.00
71165;BME280;58859;55.132;-1.586;2023-05-02T04:42:57;102268.53;;;10.74;100.00
71165;BME280;58859;55.132;-1.586;2023-05-02T04:45:22;102271.56;;;10.68;100.00
71165;BME280;58859;55.132;-1.586;2023-05-02T04:47:48;102271.41;;;10.58;100.00
71165;BME280;58859;55.132;-1.586;2023-05-02T04:50:13;102276.56;;;10.71;100.00
71165;BME280;58859;55.132;-1.586;2023-05-02T04:52:38;102264.72;;;10.67;100.00
71165;BME280;58859;55.132;-1.586;2023-05-02T04:55:04;102266.44;;;10.43;100.00
71165;BME280;58859;55.132;-1.586;2023-05-02T04:57:30;102267.03;;;10.59;100.00
71165;BME280;58859;55.132;-1.586;2023-05-02T04:59:55;102270.16;;;10.64;100.00
71165;BME280;58859;55.132;-1.586;2023-05-02T05:02:21;102268.19;;;10.55;100.00
71165;BME280;58859;55.132;-1.586;2023-05-02T05:04:47;102277.59;;;10.81;100.00
71165;BME280;58859;55.132;-1.586;2023-05-02T05:07:12;102267.06;;;10.82;100.00
71165;BME280;58859;55.132;-1.586;2023-05-02T05:09:38;102273.34;;;10.67;100.00
71165;BME280;58859;55.132;-1.586;2023-05-02T05:12:03;102268.63;;;10.49;100.00
71165;BME280;58859;55.132;-1.586;2023-05-02T05:14:29;102269.25;;;10.52;100.00
71165;BME280;58859;55.132;-1.586;2023-05-02T05:16:55;102273.19;;;10.58;100.00
71165;BME280;58859;55.132;-1.586;2023-05-02T05:19:20;102283.31;;;10.50;100.00
71165;BME280;58859;55.132;-1.586;2023-05-02T05:21:46;102272.69;;;10.53;100.00
71165;BME280;58859;55.132;-1.586;2023-05-02T05:24:11;102285.81;;;10.38;100.00
71165;BME280;58859;55.132;-1.586;2023-05-02T05:26:36;102286.97;;;10.71;100.00
71165;BME280;58859;55.132;-1.586;2023-05-02T05:29:02;102297.88;;;10.52;100.00
71165;BME280;58859;55.132;-1.586;2023-05-02T05:31:27;102294.72;;;10.60;100.00
71165;BME280;58859;55.132;-1.586;2023-05-02T05:33:53;102295.97;;;10.67;100.00
71165;BME280;58859;55.132;-1.586;2023-05-02T05:36:18;102302.81;;;10.68;100.00
71165;BME280;58859;55.132;-1.586;2023-05-02T05:38:44;102302.78;;;10.44;100.00
71165;BME280;58859;55.132;-1.586;2023-05-02T05:41:10;102301.19;;;10.54;100.00
71165;BME280;58859;55.132;-1.586;2023-05-02T05:43:35;102308.88;;;10.92;100.00
71165;BME280;58859;55.132;-1.586;2023-05-02T05:46:01;102307.66;;;10.36;100.00
71165;BME280;58859;55.132;-1.586;2023-05-02T05:48:27;102314.38;;;10.64;100.00
71165;BME280;58859;55.132;-1.586;2023-05-02T05:50:53;102306.78;;;10.61;100.00
71165;BME280;58859;55.132;-1.586;2023-05-02T05:53:18;102313.56;;;10.51;100.00
71165;BME280;58859;55.132;-1.586;2023-05-02T05:55:44;102310.16;;;10.37;100.00
71165;BME280;58859;55.132;-1.586;2023-05-02T05:58:10;102318.19;;;10.71;100.00
71165;BME280;58859;55.132;-1.586;2023-05-02T06:00:36;102314.25;;;10.65;100.00
71165;BME280;58859;55.132;-1.586;2023-05-02T06:03:02;102328.03;;;10.55;100.00
71165;BME280;58859;55.132;-1.586;2023-05-02T06:05:28;102324.09;;;10.36;100.00
71165;BME280;58859;55.132;-1.586;2023-05-02T06:07:54;102326.19;;;10.44;100.00
71165;BME280;58859;55.132;-1.586;2023-05-02T06:10:20;102326.84;;;10.71;100.00
71165;BME280;58859;55.132;-1.586;2023-05-02T06:12:45;102335.22;;;10.87;100.00
71165;BME280;58859;55.132;-1.586;2023-05-02T06:15:11;102343.72;;;11.02;100.00
71165;BME280;58859;55.132;-1.586;2023-05-02T06:17:36;102332.75;;;10.86;100.00
71165;BME280;58859;55.132;-1.586;2023-05-02T06:20:02;102340.13;;;10.79;100.00
71165;BME280;58859;55.132;-1.586;2023-05-02T06:22:28;102341.13;;;10.53;100.00
71165;BME280;58859;55.132;-1.586;2023-05-02T06:24:53;102350.59;;;10.54;100.00
71165;BME280;58859;55.132;-1.586;2023-05-02T06:27:18;102352.56;;;10.51;100.00
71165;BME280;58859;55.132;-1.586;2023-05-02T06:29:44;102361.63;;;10.45;100.00
71165;BME280;58859;55.132;-1.586;2023-05-02T06:32:09;102361.00;;;10.54;100.00
71165;BME280;58859;55.132;-1.586;2023-05-02T06:34:35;102363.63;;;10.54;100.00
71165;BME280;58859;55.132;-1.586;2023-05-02T06:37:00;102356.44;;;10.45;100.00
71165;BME280;58859;55.132;-1.586;2023-05-02T06:39:25;102367.84;;;10.68;100.00
71165;BME280;58859;55.132;-1.586;2023-05-02T06:41:56;102372.50;;;10.88;100.00
71165;BME280;58859;55.132;-1.586;2023-05-02T06:44:22;102365.66;;;10.74;100.00
71165;BME280;58859;55.132;-1.586;2023-05-02T06:46:47;102370.38;;;11.06;100.00
71165;BME280;58859;55.132;-1.586;2023-05-02T06:49:14;102370.88;;;11.34;100.00
71165;BME280;58859;55.132;-1.586;2023-05-02T06:51:39;102371.06;;;10.84;100.00
71165;BME280;58859;55.132;-1.586;2023-05-02T06:54:05;102377.88;;;10.49;100.00
71165;BME280;58859;55.132;-1.586;2023-05-02T06:56:31;102378.53;;;10.88;100.00
71165;BME280;58859;55.132;-1.586;2023-05-02T06:58:56;102376.50;;;11.05;100.00
71165;BME280;58859;55.132;-1.586;2023-05-02T07:01:21;102372.25;;;10.55;100.00
71165;BME280;58859;55.132;-1.586;2023-05-02T07:03:47;102378.25;;;10.68;100.00
71165;BME280;58859;55.132;-1.586;2023-05-02T07:06:12;102379.16;;;10.92;100.00
71165;BME280;58859;55.132;-1.586;2023-05-02T07:08:38;102376.44;;;10.93;100.00
71165;BME280;58859;55.132;-1.586;2023-05-02T07:11:03;102378.97;;;10.82;100.00
71165;BME280;58859;55.132;-1.586;2023-05-02T07:13:29;102372.19;;;11.16;100.00
71165;BME280;58859;55.132;-1.586;2023-05-02T07:15:54;102381.63;;;11.06;100.00
71165;BME280;58859;55.132;-1.586;2023-05-02T07:18:21;102382.19;;;10.86;100.00
71165;BME280;58859;55.132;-1.586;2023-05-02T07:20:46;102372.34;;;10.53;100.00
71165;BME280;58859;55.132;-1.586;2023-05-02T07:23:12;102366.66;;;10.84;100.00
71165;BME280;58859;55.132;-1.586;2023-05-02T07:25:37;102372.19;;;10.92;100.00
71165;BME280;58859;55.132;-1.586;2023-05-02T07:28:04;102363.31;;;11.19;100.00
71165;BME280;58859;55.132;-1.586;2023-05-02T07:30:29;102374.69;;;10.81;100.00
71165;BME280;58859;55.132;-1.586;2023-05-02T07:32:55;102363.91;;;10.98;100.00
71165;BME280;58859;55.132;-1.586;2023-05-02T07:35:20;102370.81;;;10.87;100.00
71165;BME280;58859;55.132;-1.586;2023-05-02T07:37:46;102378.88;;;10.84;100.00
71165;BME280;58859;55.132;-1.586;2023-05-02T07:40:11;102379.63;;;11.33;100.00
71165;BME280;58859;55.132;-1.586;2023-05-02T07:42:37;102377.34;;;10.69;100.00
71165;BME280;58859;55.132;-1.586;2023-05-02T07:45:02;102386.78;;;10.82;100.00
71165;BME280;58859;55.132;-1.586;2023-05-02T07:47:28;102376.19;;;11.09;100.00
71165;BME280;58859;55.132;-1.586;2023-05-02T07:49:54;102383.56;;;11.15;100.00
71165;BME280;58859;55.132;-1.586;2023-05-02T07:52:20;102384.28;;;10.81;100.00
71165;BME280;58859;55.132;-1.586;2023-05-02T07:54:50;102378.97;;;10.82;100.00
71165;BME280;58859;55.132;-1.586;2023-05-02T07:57:16;102389.25;;;10.96;100.00
71165;BME280;58859;55.132;-1.586;2023-05-02T07:59:41;102379.59;;;10.86;100.00
71165;BME280;58859;55.132;-1.586;2023-05-02T08:02:07;102374.59;;;11.19;100.00
71165;BME280;58859;55.132;-1.586;2023-05-02T08:04:33;102382.50;;;10.81;100.00
71165;BME280;58859;55.132;-1.586;2023-05-02T08:06:59;102381.06;;;10.65;100.00
71165;BME280;58859;55.132;-1.586;2023-05-02T08:09:25;102380.28;;;11.01;100.00
71165;BME280;58859;55.132;-1.586;2023-05-02T08:11:50;102377.34;;;11.05;100.00
71165;BME280;58859;55.132;-1.586;2023-05-02T08:14:16;102383.84;;;11.23;100.00
71165;BME280;58859;55.132;-1.586;2023-05-02T08:16:41;102385.00;;;10.83;100.00
71165;BME280;58859;55.132;-1.586;2023-05-02T08:19:07;102391.06;;;10.83;100.00
71165;BME280;58859;55.132;-1.586;2023-05-02T08:21:33;102393.16;;;11.38;100.00
71165;BME280;58859;55.132;-1.586;2023-05-02T08:23:59;102390.53;;;11.38;100.00
71165;BME280;58859;55.132;-1.586;2023-05-02T08:26:24;102397.38;;;10.92;100.00
71165;BME280;58859;55.132;-1.586;2023-05-02T08:28:51;102398.34;;;11.38;100.00
71165;BME280;58859;55.132;-1.586;2023-05-02T08:31:16;102400.13;;;11.62;100.00
71165;BME280;58859;55.132;-1.586;2023-05-02T08:33:42;102396.53;;;11.75;100.00
71165;BME280;58859;55.132;-1.586;2023-05-02T08:36:15;102392.56;;;11.35;100.00
71165;BME280;58859;55.132;-1.586;2023-05-02T08:38:41;102395.00;;;11.49;100.00
71165;BME280;58859;55.132;-1.586;2023-05-02T08:41:10;102406.78;;;11.66;100.00
71165;BME280;58859;55.132;-1.586;2023-05-02T08:43:38;102412.06;;;11.29;100.00
71165;BME280;58859;55.132;-1.586;2023-05-02T08:46:04;102406.03;;;11.16;100.00
71165;BME280;58859;55.132;-1.586;2023-05-02T08:48:44;102404.28;;;11.88;100.00
71165;BME280;58859;55.132;-1.586;2023-05-02T08:51:14;102405.31;;;11.74;100.00
71165;BME280;58859;55.132;-1.586;2023-05-02T08:53:40;102394.47;;;11.68;100.00
71165;BME280;58859;55.132;-1.586;2023-05-02T08:56:07;102398.63;;;11.94;100.00
71165;BME280;58859;55.132;-1.586;2023-05-02T08:58:35;102399.31;;;11.85;100.00
71165;BME280;58859;55.132;-1.586;2023-05-02T09:01:02;102400.47;;;11.81;100.00
71165;BME280;58859;55.132;-1.586;2023-05-02T09:03:35;102400.84;;;11.87;100.00
71165;BME280;58859;55.132;-1.586;2023-05-02T09:06:08;102401.19;;;12.29;100.00
71165;BME280;58859;55.132;-1.586;2023-05-02T09:08:35;102400.81;;;12.22;100.00
71165;BME280;58859;55.132;-1.586;2023-05-02T09:11:02;102405.63;;;12.04;100.00
71165;BME280;58859;55.132;-1.586;2023-05-02T09:13:37;102407.81;;;11.87;100.00
71165;BME280;58859;55.132;-1.586;2023-05-02T09:18:36;102413.38;;;12.06;100.00
71165;BME280;58859;55.132;-1.586;2023-05-02T09:21:10;102418.81;;;12.03;100.00
71165;BME280;58859;55.132;-1.586;2023-05-02T09:23:49;102425.88;;;11.66;100.00
71165;BME280;58859;55.132;-1.586;2023-05-02T09:26:21;102421.78;;;12.21;100.00
71165;BME280;58859;55.132;-1.586;2023-05-02T09:28:49;102423.31;;;12.12;100.00
71165;BME280;58859;55.132;-1.586;2023-05-02T09:31:35;102428.38;;;11.91;100.00
71165;BME280;58859;55.132;-1.586;2023-05-02T09:34:11;102432.63;;;11.92;100.00
71165;BME280;58859;55.132;-1.586;2023-05-02T09:36:41;102429.63;;;12.32;100.00
71165;BME280;58859;55.132;-1.586;2023-05-02T09:39:15;102422.31;;;12.37;100.00
71165;BME280;58859;55.132;-1.586;2023-05-02T09:41:42;102424.50;;;12.08;100.00
71165;BME280;58859;55.132;-1.586;2023-05-02T09:44:16;102431.91;;;12.25;100.00
71165;BME280;58859;55.132;-1.586;2023-05-02T09:46:53;102432.09;;;12.11;100.00
71165;BME280;58859;55.132;-1.586;2023-05-02T09:49:38;102437.38;;;12.55;100.00
71165;BME280;58859;55.132;-1.586;2023-05-02T09:52:11;102436.72;;;12.07;100.00
71165;BME280;58859;55.132;-1.586;2023-05-02T09:54:37;102431.44;;;12.31;100.00
71165;BME280;58859;55.132;-1.586;2023-05-02T09:57:02;102440.69;;;12.35;100.00
71165;BME280;58859;55.132;-1.586;2023-05-02T09:59:28;102440.47;;;12.03;100.00
71165;BME280;58859;55.132;-1.586;2023-05-02T10:02:00;102444.28;;;11.99;100.00
71165;BME280;58859;55.132;-1.586;2023-05-02T10:04:27;102445.00;;;12.13;100.00
71165;BME280;58859;55.132;-1.586;2023-05-02T10:06:54;102434.91;;;11.97;100.00
71165;BME280;58859;55.132;-1.586;2023-05-02T10:09:20;102444.69;;;12.17;100.00
71165;BME280;58859;55.132;-1.586;2023-05-02T10:11:47;102426.72;;;12.81;100.00
71165;BME280;58859;55.132;-1.586;2023-05-02T10:14:15;102434.44;;;12.60;100.00
71165;BME280;58859;55.132;-1.586;2023-05-02T10:19:22;102430.53;;;12.77;100.00
71165;BME280;58859;55.132;-1.586;2023-05-02T10:21:48;102451.50;;;12.07;100.00
71165;BME280;58859;55.132;-1.586;2023-05-02T10:24:14;102445.94;;;12.91;100.00
71165;BME280;58859;55.132;-1.586;2023-05-02T10:26:41;102437.63;;;12.63;100.00
71165;BME280;58859;55.132;-1.586;2023-05-02T10:29:07;102431.56;;;13.18;100.00
71165;BME280;58859;55.132;-1.586;2023-05-02T10:31:33;102430.50;;;12.54;100.00
71165;BME280;58859;55.132;-1.586;2023-05-02T10:33:59;102436.19;;;13.26;100.00
71165;BME280;58859;55.132;-1.586;2023-05-02T10:36:27;102430.53;;;13.10;100.00
71165;BME280;58859;55.132;-1.586;2023-05-02T10:38:53;102436.69;;;13.09;100.00
71165;BME280;58859;55.132;-1.586;2023-05-02T10:41:22;102435.97;;;13.18;100.00
71165;BME280;58859;55.132;-1.586;2023-05-02T10:43:51;102441.91;;;12.76;100.00
71165;BME280;58859;55.132;-1.586;2023-05-02T10:46:37;102439.53;;;13.17;100.00
71165;BME280;58859;55.132;-1.586;2023-05-02T10:49:10;102435.22;;;13.38;100.00
71165;BME280;58859;55.132;-1.586;2023-05-02T10:51:40;102438.56;;;13.18;100.00
71165;BME280;58859;55.132;-1.586;2023-05-02T10:54:22;102448.53;;;13.35;100.00
71165;BME280;58859;55.132;-1.586;2023-05-02T10:59:34;102446.91;;;13.55;100.00
71165;BME280;58859;55.132;-1.586;2023-05-02T11:02:00;102452.22;;;12.77;100.00
71165;BME280;58859;55.132;-1.586;2023-05-02T11:05:00;102452.81;;;12.92;100.00
71165;BME280;58859;55.132;-1.586;2023-05-02T11:07:27;102457.56;;;12.53;100.00
71165;BME280;58859;55.132;-1.586;2023-05-02T11:09:52;102453.56;;;13.16;100.00
71165;BME280;58859;55.132;-1.586;2023-05-02T11:12:45;102452.69;;;13.27;100.00
71165;BME280;58859;55.132;-1.586;2023-05-02T11:15:11;102448.56;;;13.67;100.00
71165;BME280;58859;55.132;-1.586;2023-05-02T11:18:02;102443.06;;;13.38;100.00
71165;BME280;58859;55.132;-1.586;2023-05-02T11:20:28;102442.19;;;13.49;100.00
71165;BME280;58859;55.132;-1.586;2023-05-02T11:22:56;102438.13;;;14.08;100.00
71165;BME280;58859;55.132;-1.586;2023-05-02T11:25:36;102443.38;;;14.29;100.00
71165;BME280;58859;55.132;-1.586;2023-05-02T11:28:05;102446.69;;;14.52;100.00
71165;BME280;58859;55.132;-1.586;2023-05-02T11:30:40;102445.41;;;13.84;100.00
71165;BME280;58859;55.132;-1.586;2023-05-02T11:35:33;102443.31;;;14.40;100.00
71165;BME280;58859;55.132;-1.586;2023-05-02T11:38:05;102452.16;;;13.87;100.00
71165;BME280;58859;55.132;-1.586;2023-05-02T11:40:31;102443.69;;;13.31;100.00
71165;BME280;58859;55.132;-1.586;2023-05-02T11:42:58;102444.56;;;13.83;100.00
71165;BME280;58859;55.132;-1.586;2023-05-02T11:45:34;102448.97;;;14.66;100.00
71165;BME280;58859;55.132;-1.586;2023-05-02T11:48:11;102439.00;;;14.60;100.00
71165;BME280;58859;55.132;-1.586;2023-05-02T11:50:50;102445.34;;;14.87;100.00
71165;BME280;58859;55.132;-1.586;2023-05-02T11:53:21;102442.41;;;14.09;100.00
71165;BME280;58859;55.132;-1.586;2023-05-02T11:55:49;102455.00;;;14.36;100.00
71165;BME280;58859;55.132;-1.586;2023-05-02T11:58:22;102457.56;;;13.42;100.00
71165;BME280;58859;55.132;-1.586;2023-05-02T12:00:51;102458.13;;;13.77;100.00
71165;BME280;58859;55.132;-1.586;2023-05-02T12:03:25;102463.84;;;14.03;100.00
71165;BME280;58859;55.132;-1.586;2023-05-02T12:05:50;102465.09;;;13.67;100.00
71165;BME280;58859;55.132;-1.586;2023-05-02T12:08:26;102457.63;;;13.83;100.00
71165;BME280;58859;55.132;-1.586;2023-05-02T12:10:54;102451.53;;;13.62;100.00
71165;BME280;58859;55.132;-1.586;2023-05-02T12:13:22;102450.56;;;13.95;100.00
71165;BME280;58859;55.132;-1.586;2023-05-02T12:15:49;102458.09;;;13.89;100.00
71165;BME280;58859;55.132;-1.586;2023-05-02T12:18:16;102460.53;;;13.69;100.00
71165;BME280;58859;55.132;-1.586;2023-05-02T12:20:42;102454.81;;;13.75;100.00
71165;BME280;58859;55.132;-1.586;2023-05-02T12:23:08;102455.94;;;13.19;100.00
71165;BME280;58859;55.132;-1.586;2023-05-02T12:25:41;102463.25;;;13.36;100.00
71165;BME280;58859;55.132;-1.586;2023-05-02T12:28:07;102465.06;;;13.02;100.00
71165;BME280;58859;55.132;-1.586;2023-05-02T12:30:34;102457.78;;;13.39;100.00
71165;BME280;58859;55.132;-1.586;2023-05-02T12:33:00;102457.03;;;13.48;100.00
71165;BME280;58859;55.132;-1.586;2023-05-02T12:35:27;102450.75;;;13.40;100.00
71165;BME280;58859;55.132;-1.586;2023-05-02T12:37:54;102461.47;;;13.48;100.00
71165;BME280;58859;55.132;-1.586;2023-05-02T12:40:20;102466.50;;;13.60;100.00
71165;BME280;58859;55.132;-1.586;2023-05-02T12:43:03;102464.91;;;13.80;100.00
71165;BME280;58859;55.132;-1.586;2023-05-02T12:45:30;102466.16;;;13.65;100.00
71165;BME280;58859;55.132;-1.586;2023-05-02T12:48:00;102470.47;;;13.87;100.00
71165;BME280;58859;55.132;-1.586;2023-05-02T12:50:38;102461.69;;;13.76;100.00
71165;BME280;58859;55.132;-1.586;2023-05-02T12:53:03;102460.66;;;14.20;100.00
71165;BME280;58859;55.132;-1.586;2023-05-02T12:55:30;102459.94;;;13.98;100.00